createdAt,value
2017-10-07T00:00:17.040Z,18.57
2017-10-07T00:02:45.172Z,14.10
2017-10-07T00:05:13.268Z,17.70
2017-10-07T00:07:41.359Z,16.70
2017-10-07T00:10:09.442Z,18.80
2017-10-07T00:12:37.527Z,21.53
2017-10-07T00:15:05.585Z,27.63
2017-10-07T00:17:33.703Z,17.30
2017-10-07T00:20:01.810Z,25.40
2017-10-07T00:22:29.892Z,19.20
2017-10-07T00:24:57.963Z,25.90
2017-10-07T00:27:26.032Z,20.53
2017-10-07T00:29:54.116Z,21.07
2017-10-07T00:32:22.177Z,22.97
2017-10-07T00:34:50.270Z,22.90
2017-10-07T00:37:19.131Z,21.90
2017-10-07T00:39:47.208Z,18.90
2017-10-07T00:42:15.301Z,22.10
2017-10-07T00:44:44.159Z,22.57
2017-10-07T00:47:12.279Z,20.90
2017-10-07T00:49:40.344Z,33.20
2017-10-07T00:52:09.376Z,30.93
2017-10-07T00:54:37.463Z,27.43
2017-10-07T00:57:05.579Z,21.20
2017-10-07T00:59:33.715Z,28.83
2017-10-07T01:02:03.263Z,26.83
2017-10-07T01:04:31.338Z,35.97
2017-10-07T01:06:59.704Z,24.30
2017-10-07T01:09:27.801Z,31.53
2017-10-07T01:11:55.867Z,35.07
2017-10-07T01:14:23.977Z,31.77
2017-10-07T01:16:52.792Z,35.50
2017-10-07T01:19:20.850Z,39.40
2017-10-07T01:21:48.950Z,34.83
2017-10-07T01:24:17.044Z,38.13
2017-10-07T01:26:45.132Z,39.73
2017-10-07T01:29:14.013Z,38.87
2017-10-07T01:31:42.131Z,36.83
2017-10-07T01:34:10.206Z,36.03
2017-10-07T01:36:38.330Z,45.57
2017-10-07T01:39:07.208Z,37.37
2017-10-07T01:41:35.537Z,32.10
2017-10-07T01:44:03.638Z,34.17
2017-10-07T01:46:31.727Z,39.43
2017-10-07T01:48:59.828Z,37.47
2017-10-07T01:51:28.694Z,31.10
2017-10-07T01:53:56.764Z,36.77
2017-10-07T01:56:25.610Z,31.23
2017-10-07T01:58:54.631Z,30.03
2017-10-07T02:01:23.490Z,28.03
2017-10-07T02:03:51.571Z,31.63
2017-10-07T02:06:19.690Z,27.33
2017-10-07T02:08:48.554Z,35.97
2017-10-07T02:11:18.135Z,27.80
2017-10-07T02:13:46.787Z,35.10
2017-10-07T02:16:14.942Z,29.23
2017-10-07T02:18:43.786Z,30.43
2017-10-07T02:21:11.906Z,31.60
2017-10-07T02:23:40.075Z,26.37
2017-10-07T02:26:08.445Z,22.87
2017-10-07T02:28:36.502Z,27.20
2017-10-07T02:31:04.571Z,30.67
2017-10-07T02:33:33.411Z,27.43
2017-10-07T02:36:01.484Z,20.80
2017-10-07T02:38:29.567Z,27.03
2017-10-07T02:40:57.697Z,24.10
2017-10-07T02:43:25.743Z,23.60
2017-10-07T02:45:54.582Z,22.47
2017-10-07T02:48:22.679Z,17.10
2017-10-07T02:50:50.739Z,15.80
2017-10-07T02:53:18.865Z,22.20
2017-10-07T02:55:46.943Z,19.80
2017-10-07T02:58:15.045Z,15.70
2017-10-07T03:00:43.890Z,15.17
2017-10-07T03:03:12.027Z,19.30
2017-10-07T03:05:40.846Z,19.10
2017-10-07T03:08:08.947Z,18.90
2017-10-07T03:10:37.023Z,17.37
2017-10-07T03:13:05.099Z,13.60
2017-10-07T03:15:33.966Z,18.90
2017-10-07T03:18:02.040Z,11.80
2017-10-07T03:20:30.135Z,16.70
2017-10-07T03:22:59.727Z,14.33
2017-10-07T03:25:27.813Z,14.73
2017-10-07T03:27:56.684Z,12.00
2017-10-07T03:30:24.772Z,10.63
2017-10-07T03:32:52.844Z,8.90
2017-10-07T03:35:20.913Z,14.13
2017-10-07T03:37:49.027Z,11.53
2017-10-07T03:40:17.111Z,13.40
2017-10-07T03:42:45.173Z,13.53
2017-10-07T03:45:13.437Z,9.53
2017-10-07T03:47:41.507Z,15.07
2017-10-07T03:50:09.571Z,10.43
2017-10-07T03:52:38.392Z,14.17
2017-10-07T03:55:06.442Z,17.07
2017-10-07T03:57:34.515Z,12.33
2017-10-07T04:00:02.619Z,12.80
2017-10-07T04:02:30.707Z,14.90
2017-10-07T04:04:59.549Z,18.97
2017-10-07T04:07:27.622Z,17.70
2017-10-07T04:09:55.687Z,19.67
2017-10-07T04:12:24.623Z,18.73
2017-10-07T04:14:53.496Z,16.77
2017-10-07T04:17:21.561Z,16.93
2017-10-07T04:19:49.634Z,13.80
2017-10-07T04:22:17.713Z,17.97
2017-10-07T04:24:45.791Z,14.83
2017-10-07T04:27:13.851Z,13.07
2017-10-07T04:29:41.935Z,17.87
2017-10-07T04:32:10.005Z,15.07
2017-10-07T04:34:38.327Z,10.80
2017-10-07T04:37:06.393Z,13.93
2017-10-07T04:39:34.478Z,10.47
2017-10-07T04:42:02.590Z,11.70
2017-10-07T04:44:31.423Z,11.07
2017-10-07T04:46:59.495Z,11.10
2017-10-07T04:49:27.771Z,15.63
2017-10-07T04:51:56.585Z,14.17
2017-10-07T04:54:24.659Z,12.77
2017-10-07T04:56:52.765Z,14.20
2017-10-07T04:59:20.828Z,10.93
2017-10-07T05:01:48.918Z,13.40
2017-10-07T05:04:17.745Z,8.40
2017-10-07T05:06:45.842Z,12.63
2017-10-07T05:09:14.463Z,20.83
2017-10-07T05:11:43.298Z,9.93
2017-10-07T05:14:11.397Z,11.30
2017-10-07T05:16:39.468Z,15.37
2017-10-07T05:19:09.460Z,11.20
2017-10-07T05:21:37.519Z,11.90
2017-10-07T05:24:05.604Z,11.00
2017-10-07T05:26:33.845Z,13.83
2017-10-07T05:29:01.903Z,9.97
2017-10-07T05:31:30.723Z,9.23
2017-10-07T05:33:58.815Z,14.60
2017-10-07T05:36:27.171Z,10.67
2017-10-07T05:38:55.231Z,15.70
2017-10-07T05:41:25.330Z,10.83
2017-10-07T05:44:00.478Z,14.33
2017-10-07T05:46:29.674Z,7.37
2017-10-07T05:48:59.307Z,15.17
2017-10-07T05:51:28.263Z,7.50
2017-10-07T05:53:56.476Z,12.60
2017-10-07T05:56:29.649Z,18.47
2017-10-07T05:58:58.200Z,10.47
2017-10-07T06:01:26.407Z,13.43
2017-10-07T06:03:55.385Z,7.83
2017-10-07T06:06:25.667Z,10.70
2017-10-07T06:08:54.653Z,11.10
2017-10-07T06:11:34.094Z,10.87
2017-10-07T06:14:02.325Z,10.17
2017-10-07T06:16:35.458Z,11.10
2017-10-07T06:19:05.310Z,10.50
2017-10-07T06:21:48.642Z,12.17
2017-10-07T06:24:24.492Z,8.33
2017-10-07T06:26:54.140Z,9.70
2017-10-07T06:29:23.025Z,6.93
2017-10-07T06:31:51.831Z,6.60
2017-10-07T06:34:20.541Z,17.07
2017-10-07T06:36:48.768Z,10.20
2017-10-07T06:39:17.685Z,7.80
2017-10-07T06:41:45.905Z,6.30
2017-10-07T06:44:15.455Z,12.63
2017-10-07T06:49:26.732Z,6.20
2017-10-07T06:51:54.886Z,7.20
2017-10-07T06:54:25.629Z,9.83
2017-10-07T06:56:54.770Z,5.23
2017-10-07T06:59:29.496Z,5.20
2017-10-07T07:02:02.475Z,6.70
2017-10-07T07:04:35.299Z,4.77
2017-10-07T07:07:07.317Z,8.27
2017-10-07T07:09:43.926Z,10.10
2017-10-07T07:12:12.541Z,4.53
2017-10-07T07:14:41.372Z,11.90
2017-10-07T07:17:09.989Z,3.73
2017-10-07T07:19:38.975Z,4.90
2017-10-07T07:22:07.186Z,5.60
2017-10-07T07:24:35.410Z,8.03
2017-10-07T07:27:04.128Z,7.70
2017-10-07T07:29:34.531Z,9.53
2017-10-07T07:34:37.672Z,11.20
2017-10-07T07:37:06.771Z,8.73
2017-10-07T07:39:35.802Z,8.70
2017-10-07T07:42:04.535Z,6.93
2017-10-07T07:44:32.854Z,8.90
2017-10-07T07:47:01.256Z,8.20
2017-10-07T07:49:30.125Z,9.97
2017-10-07T07:51:58.218Z,11.40
2017-10-07T07:54:26.291Z,7.23
2017-10-07T07:56:54.362Z,10.30
2017-10-07T07:59:23.227Z,8.93
2017-10-07T08:01:51.294Z,3.33
2017-10-07T08:04:19.386Z,3.63
2017-10-07T08:06:47.423Z,9.97
2017-10-07T08:09:15.517Z,7.93
2017-10-07T08:11:43.578Z,8.90
2017-10-07T08:14:11.631Z,10.00
2017-10-07T08:16:39.754Z,8.57
2017-10-07T08:19:08.573Z,7.73
2017-10-07T08:21:36.626Z,6.10
2017-10-07T08:24:04.718Z,8.17
2017-10-07T08:26:32.795Z,9.80
2017-10-07T08:29:00.867Z,6.00
2017-10-07T08:31:28.940Z,6.03
2017-10-07T08:33:57.018Z,10.77
2017-10-07T08:36:25.079Z,4.57
2017-10-07T08:38:53.170Z,7.43
2017-10-07T08:41:21.223Z,6.53
2017-10-07T08:43:49.290Z,7.30
2017-10-07T08:46:17.350Z,7.97
2017-10-07T08:48:50.394Z,8.73
2017-10-07T08:51:19.217Z,9.37
2017-10-07T08:53:47.292Z,8.50
2017-10-07T08:56:15.369Z,6.67
2017-10-07T08:58:43.431Z,11.33
2017-10-07T09:01:12.305Z,8.23
2017-10-07T09:03:40.384Z,10.67
2017-10-07T09:06:08.454Z,7.50
2017-10-07T09:08:36.522Z,6.03
2017-10-07T09:11:04.602Z,6.30
2017-10-07T09:13:32.808Z,7.80
2017-10-07T09:16:00.831Z,11.43
2017-10-07T09:18:28.923Z,6.83
2017-10-07T09:20:57.754Z,10.27
2017-10-07T09:23:25.843Z,4.63
2017-10-07T09:25:53.928Z,12.53
2017-10-07T09:28:22.019Z,6.03
2017-10-07T09:30:50.072Z,4.93
2017-10-07T09:33:18.151Z,8.00
2017-10-07T09:35:46.232Z,7.50
2017-10-07T09:38:15.075Z,12.20
2017-10-07T09:40:43.175Z,6.93
2017-10-07T09:43:11.228Z,8.00
2017-10-07T09:45:39.289Z,4.73
2017-10-07T09:48:07.374Z,6.43
2017-10-07T09:50:35.439Z,11.80
2017-10-07T09:53:04.455Z,6.33
2017-10-07T09:55:32.544Z,12.63
2017-10-07T09:58:00.651Z,7.50
2017-10-07T10:00:29.806Z,8.07
2017-10-07T10:02:57.856Z,9.43
2017-10-07T10:05:25.917Z,8.07
2017-10-07T10:07:54.014Z,7.03
2017-10-07T10:10:22.046Z,14.43
2017-10-07T10:12:50.139Z,7.53
2017-10-07T10:15:18.207Z,7.60
2017-10-07T10:17:46.297Z,7.23
2017-10-07T10:20:14.371Z,6.30
2017-10-07T10:22:42.998Z,4.23
2017-10-07T10:25:12.081Z,10.97
2017-10-07T10:27:40.248Z,4.87
2017-10-07T10:30:08.734Z,10.13
2017-10-07T10:32:37.598Z,4.47
2017-10-07T10:35:05.746Z,4.13
2017-10-07T10:37:34.663Z,4.87
2017-10-07T10:40:03.665Z,4.97
2017-10-07T10:42:32.651Z,5.07
2017-10-07T10:45:00.885Z,6.87
2017-10-07T10:47:30.120Z,6.43
2017-10-07T10:49:58.300Z,6.87
2017-10-07T10:52:26.496Z,8.37
2017-10-07T10:54:55.384Z,8.30
2017-10-07T10:57:23.483Z,7.27
2017-10-07T10:59:51.625Z,3.67
2017-10-07T11:02:19.777Z,11.37
2017-10-07T11:04:47.888Z,5.17
2017-10-07T11:07:16.047Z,5.67
2017-10-07T11:09:44.197Z,5.50
2017-10-07T11:12:12.301Z,8.97
2017-10-07T11:14:40.510Z,5.23
2017-10-07T11:17:09.460Z,8.73
2017-10-07T11:19:37.637Z,8.43
2017-10-07T11:22:05.772Z,5.00
2017-10-07T11:27:42.066Z,4.50
2017-10-07T11:30:12.276Z,8.70
2017-10-07T11:32:40.862Z,6.03
2017-10-07T11:35:09.788Z,5.57
2017-10-07T11:37:39.063Z,5.70
2017-10-07T11:40:07.624Z,8.30
2017-10-07T11:42:35.696Z,5.67
2017-10-07T11:45:03.763Z,8.30
2017-10-07T11:47:31.845Z,8.13
2017-10-07T11:49:59.927Z,10.00
2017-10-07T11:52:28.020Z,5.57
2017-10-07T11:54:56.077Z,4.40
2017-10-07T11:57:24.142Z,6.07
2017-10-07T11:59:52.222Z,7.03
2017-10-07T12:02:20.306Z,10.33
2017-10-07T12:04:48.999Z,7.50
2017-10-07T12:07:17.077Z,10.93
2017-10-07T12:09:45.131Z,3.97
2017-10-07T12:12:13.218Z,5.03
2017-10-07T12:14:42.124Z,9.73
2017-10-07T12:17:10.203Z,6.40
2017-10-07T12:19:38.271Z,4.93
2017-10-07T12:22:06.340Z,3.47
2017-10-07T12:24:34.398Z,3.80
2017-10-07T12:27:02.499Z,4.90
2017-10-07T12:29:31.338Z,3.10
2017-10-07T12:31:59.447Z,5.67
2017-10-07T12:34:27.518Z,4.13
2017-10-07T12:36:55.585Z,6.83
2017-10-07T12:39:23.659Z,10.17
2017-10-07T12:41:52.519Z,6.27
2017-10-07T12:44:20.608Z,6.50
2017-10-07T12:46:48.667Z,4.30
2017-10-07T12:49:16.784Z,3.13
2017-10-07T12:51:45.624Z,2.70
2017-10-07T12:54:13.692Z,3.10
2017-10-07T12:56:41.763Z,2.70
2017-10-07T12:59:09.829Z,3.23
2017-10-07T13:01:38.677Z,6.63
2017-10-07T13:04:07.544Z,3.27
2017-10-07T13:06:36.234Z,3.80
2017-10-07T13:09:04.295Z,3.60
2017-10-07T13:11:32.378Z,5.40
2017-10-07T13:14:00.461Z,2.83
2017-10-07T13:16:29.294Z,4.03
2017-10-07T13:18:57.358Z,5.37
2017-10-07T13:21:25.435Z,5.00
2017-10-07T13:23:53.517Z,3.60
2017-10-07T13:26:21.583Z,3.47
2017-10-07T13:28:49.877Z,3.40
2017-10-07T13:31:18.077Z,3.47
2017-10-07T13:33:46.347Z,6.10
2017-10-07T13:36:15.313Z,3.70
2017-10-07T13:38:43.720Z,3.67
2017-10-07T13:41:16.159Z,3.57
2017-10-07T13:43:45.508Z,8.07
2017-10-07T13:46:14.041Z,4.53
2017-10-07T13:48:48.160Z,5.73
2017-10-07T13:51:17.441Z,4.20
2017-10-07T13:53:45.524Z,6.53
2017-10-07T13:56:13.712Z,3.80
2017-10-07T13:58:42.513Z,4.70
2017-10-07T14:01:10.679Z,3.63
2017-10-07T14:03:38.894Z,3.93
2017-10-07T14:06:07.084Z,4.40
2017-10-07T14:08:36.410Z,4.50
2017-10-07T14:11:04.541Z,7.93
2017-10-07T14:13:32.705Z,3.80
2017-10-07T14:16:01.624Z,4.00
2017-10-07T14:18:29.826Z,5.23
2017-10-07T14:20:57.904Z,3.50
2017-10-07T14:23:25.975Z,3.50
2017-10-07T14:25:54.042Z,3.30
2017-10-07T14:28:22.133Z,3.03
2017-10-07T14:30:50.220Z,4.90
2017-10-07T14:33:18.282Z,3.20
2017-10-07T14:35:46.371Z,2.73
2017-10-07T14:38:14.447Z,3.13
2017-10-07T14:40:42.531Z,2.60
2017-10-07T14:43:10.598Z,3.47
2017-10-07T14:45:38.680Z,3.80
2017-10-07T14:48:06.739Z,3.63
2017-10-07T14:50:34.813Z,3.67
2017-10-07T14:53:03.671Z,4.43
2017-10-07T14:55:31.730Z,7.20
2017-10-07T14:57:59.818Z,4.53
2017-10-07T15:00:27.885Z,7.17
2017-10-07T15:02:55.949Z,7.60
2017-10-07T15:05:24.045Z,6.23
2017-10-07T15:07:52.154Z,5.20
2017-10-07T15:10:20.983Z,5.97
2017-10-07T15:12:49.083Z,6.63
2017-10-07T15:15:17.732Z,6.47
2017-10-07T15:17:45.815Z,6.37
2017-10-07T15:20:13.894Z,6.60
2017-10-07T15:22:41.967Z,6.10
2017-10-07T15:25:10.052Z,6.90
2017-10-07T15:27:39.619Z,7.00
2017-10-07T15:30:07.695Z,7.63
2017-10-07T15:32:35.839Z,6.47
2017-10-07T15:35:04.759Z,6.53
2017-10-07T15:37:32.838Z,5.70
2017-10-07T15:40:00.979Z,7.20
2017-10-07T15:42:30.125Z,5.70
2017-10-07T15:44:58.164Z,6.10
2017-10-07T15:47:26.232Z,6.20
2017-10-07T15:49:54.304Z,6.57
2017-10-07T15:52:22.403Z,6.27
2017-10-07T15:54:50.498Z,6.57
2017-10-07T15:57:18.571Z,6.33
2017-10-07T15:59:47.415Z,6.43
2017-10-07T16:02:15.511Z,5.60
2017-10-07T16:04:43.580Z,5.73
2017-10-07T16:07:11.662Z,9.20
2017-10-07T16:09:39.726Z,5.27
2017-10-07T16:12:07.796Z,5.23
2017-10-07T16:14:35.901Z,5.07
2017-10-07T16:17:04.771Z,4.67
2017-10-07T16:19:33.600Z,5.93
2017-10-07T16:22:01.665Z,5.40
2017-10-07T16:24:29.776Z,4.97
2017-10-07T16:26:57.855Z,5.00
2017-10-07T16:29:25.914Z,7.47
2017-10-07T16:31:53.998Z,4.83
2017-10-07T16:34:22.055Z,5.00
2017-10-07T16:36:50.126Z,5.70
2017-10-07T16:39:18.224Z,4.87
2017-10-07T16:41:46.295Z,7.27
2017-10-07T16:44:15.162Z,4.87
2017-10-07T16:46:43.241Z,4.80
2017-10-07T16:49:11.684Z,8.10
2017-10-07T16:51:39.744Z,7.83
2017-10-07T16:54:07.839Z,7.70
2017-10-07T16:56:35.940Z,6.17
2017-10-07T16:59:03.998Z,5.50
2017-10-07T17:01:32.068Z,5.97
2017-10-07T17:04:00.150Z,7.07
2017-10-07T17:06:28.243Z,6.90
2017-10-07T17:08:56.322Z,4.70
2017-10-07T17:11:24.457Z,4.70
2017-10-07T17:13:52.529Z,5.17
2017-10-07T17:16:20.609Z,4.97
2017-10-07T17:18:48.671Z,7.33
2017-10-07T17:21:16.845Z,4.50
2017-10-07T17:23:44.882Z,4.90
2017-10-07T17:26:13.789Z,4.17
2017-10-07T17:28:42.643Z,6.70
2017-10-07T17:31:10.700Z,5.10
2017-10-07T17:33:38.775Z,4.73
2017-10-07T17:36:06.842Z,4.53
2017-10-07T17:38:34.914Z,4.87
2017-10-07T17:41:02.992Z,4.47
2017-10-07T17:43:31.057Z,4.37
2017-10-07T17:45:59.176Z,3.70
2017-10-07T17:48:28.068Z,6.93
2017-10-07T17:50:56.117Z,3.60
2017-10-07T17:53:24.222Z,3.70
2017-10-07T17:55:53.054Z,3.73
2017-10-07T17:58:21.099Z,3.13
2017-10-07T18:00:49.203Z,4.20
2017-10-07T18:03:17.258Z,4.30
2017-10-07T18:05:45.333Z,3.50
2017-10-07T18:08:13.441Z,4.30
2017-10-07T18:10:42.263Z,4.27
2017-10-07T18:13:10.353Z,4.47
2017-10-07T18:15:39.245Z,3.77
2017-10-07T18:18:07.360Z,4.00
2017-10-07T18:20:35.390Z,4.37
2017-10-07T18:23:03.507Z,4.57
2017-10-07T18:25:32.338Z,4.77
2017-10-07T18:28:00.438Z,4.53
2017-10-07T18:30:29.311Z,4.60
2017-10-07T18:32:57.368Z,7.00
2017-10-07T18:35:25.438Z,6.30
2017-10-07T18:37:53.510Z,4.63
2017-10-07T18:40:21.603Z,5.30
2017-10-07T18:42:49.672Z,6.77
2017-10-07T18:45:17.774Z,4.90
2017-10-07T18:47:46.613Z,4.73
2017-10-07T18:50:14.692Z,4.30
2017-10-07T18:52:42.759Z,6.23
2017-10-07T18:55:10.819Z,5.10
2017-10-07T18:57:38.883Z,4.57
2017-10-07T19:00:06.955Z,5.07
2017-10-07T19:02:35.043Z,4.73
2017-10-07T19:05:03.108Z,4.80
2017-10-07T19:07:31.964Z,5.10
2017-10-07T19:10:00.026Z,5.80
2017-10-07T19:12:28.125Z,5.03
2017-10-07T19:14:56.993Z,5.40
2017-10-07T19:17:25.059Z,5.10
2017-10-07T19:19:53.248Z,5.90
2017-10-07T19:22:21.368Z,5.37
2017-10-07T19:24:49.435Z,5.97
2017-10-07T19:27:17.642Z,7.07
2017-10-07T19:29:45.795Z,6.00
2017-10-07T19:32:13.842Z,5.40
2017-10-07T19:34:41.903Z,5.80
2017-10-07T19:37:10.004Z,12.33
2017-10-07T19:39:38.105Z,5.97
2017-10-07T19:42:06.248Z,7.17
2017-10-07T19:44:34.862Z,6.80
2017-10-07T19:47:05.274Z,6.50
2017-10-07T19:49:33.443Z,5.27
2017-10-07T19:52:01.532Z,5.93
2017-10-07T19:54:29.604Z,5.20
2017-10-07T19:56:57.712Z,5.20
2017-10-07T19:59:25.760Z,4.67
2017-10-07T20:01:55.223Z,4.20
2017-10-07T20:04:23.322Z,4.83
2017-10-07T20:06:51.425Z,4.40
2017-10-07T20:09:19.499Z,5.40
2017-10-07T20:11:47.559Z,5.47
2017-10-07T20:14:15.643Z,5.40
2017-10-07T20:16:43.743Z,5.50
2017-10-07T20:19:11.820Z,6.47
2017-10-07T20:21:39.899Z,7.10
2017-10-07T20:24:08.739Z,7.30
2017-10-07T20:26:36.830Z,7.70
2017-10-07T20:29:04.910Z,8.83
2017-10-07T20:31:32.990Z,7.87
2017-10-07T20:34:01.052Z,9.10
2017-10-07T20:36:29.140Z,9.23
2017-10-07T20:38:57.217Z,10.30
2017-10-07T20:41:25.295Z,9.37
2017-10-07T20:43:54.219Z,10.10
2017-10-07T20:46:22.320Z,9.77
2017-10-07T20:48:50.452Z,11.37
2017-10-07T20:51:18.564Z,11.90
2017-10-07T20:53:46.638Z,12.90
2017-10-07T20:56:14.699Z,9.87
2017-10-07T20:58:42.802Z,9.80
2017-10-07T21:01:10.917Z,9.20
2017-10-07T21:03:39.752Z,9.40
2017-10-07T21:06:07.824Z,8.83
2017-10-07T21:08:35.880Z,8.57
2017-10-07T21:11:03.964Z,7.50
2017-10-07T21:13:32.050Z,8.03
2017-10-07T21:16:00.889Z,7.43
2017-10-07T21:18:29.000Z,7.20
2017-10-07T21:20:57.087Z,9.20
2017-10-07T21:23:25.913Z,8.13
2017-10-07T21:25:53.999Z,7.03
2017-10-07T21:28:22.059Z,8.00
2017-10-07T21:30:50.143Z,8.27
2017-10-07T21:33:18.227Z,7.80
2017-10-07T21:35:46.303Z,6.53
2017-10-07T21:38:14.878Z,7.17
2017-10-07T21:40:42.950Z,8.50
2017-10-07T21:43:11.020Z,9.67
2017-10-07T21:45:39.095Z,7.27
2017-10-07T21:48:07.187Z,9.57
2017-10-07T21:50:35.265Z,8.70
2017-10-07T21:53:03.331Z,9.90
2017-10-07T21:55:31.412Z,9.47
2017-10-07T21:57:59.480Z,8.83
2017-10-07T22:00:28.325Z,9.10
2017-10-07T22:02:56.387Z,10.70
2017-10-07T22:05:24.502Z,11.20
2017-10-07T22:07:52.578Z,11.27
2017-10-07T22:10:20.704Z,11.63
2017-10-07T22:12:49.538Z,12.10
2017-10-07T22:15:17.619Z,12.83
2017-10-07T22:17:45.724Z,12.00
2017-10-07T22:20:14.549Z,13.47
2017-10-07T22:22:42.651Z,13.67
2017-10-07T22:25:10.721Z,13.80
2017-10-07T22:27:39.556Z,13.60
2017-10-07T22:30:07.634Z,14.80
2017-10-07T22:32:35.716Z,16.47
2017-10-07T22:35:03.786Z,15.40
2017-10-07T22:37:31.855Z,14.73
2017-10-07T22:39:59.955Z,16.23
2017-10-07T22:42:28.038Z,13.27
2017-10-07T22:44:56.108Z,14.73
2017-10-07T22:47:24.192Z,15.90
2017-10-07T22:49:52.291Z,12.80
2017-10-07T22:52:20.370Z,16.30
2017-10-07T22:54:49.367Z,15.67
2017-10-07T22:57:17.467Z,16.10
2017-10-07T22:59:45.523Z,17.47
2017-10-07T23:02:13.670Z,15.77
2017-10-07T23:04:41.744Z,16.30
2017-10-07T23:07:09.835Z,16.33
2017-10-07T23:09:37.951Z,16.47
2017-10-07T23:12:06.065Z,18.23
2017-10-07T23:14:34.130Z,16.90
2017-10-07T23:17:02.523Z,17.70
2017-10-07T23:19:30.582Z,17.23
2017-10-07T23:21:58.667Z,18.33
2017-10-07T23:24:27.518Z,16.97
2017-10-07T23:26:55.597Z,21.70
2017-10-07T23:29:23.689Z,17.37
2017-10-07T23:31:52.629Z,17.80
2017-10-07T23:34:21.454Z,18.23
2017-10-07T23:36:49.545Z,18.40
2017-10-07T23:39:17.626Z,17.40
2017-10-07T23:41:45.721Z,18.20
2017-10-07T23:44:14.572Z,17.80
2017-10-07T23:46:42.657Z,17.67
2017-10-07T23:49:12.262Z,22.83
2017-10-07T23:51:40.998Z,20.23
2017-10-07T23:54:09.077Z,20.83
2017-10-07T23:56:37.152Z,19.30
2017-10-07T23:59:05.214Z,21.33
